createdAt,value
2018-12-24T00:00:04.216Z,7.07
2018-12-24T00:01:04.206Z,7.05
2018-12-24T00:02:04.307Z,7.04
2018-12-24T00:03:04.189Z,7.11
2018-12-24T00:04:04.169Z,7.19
2018-12-24T00:05:04.164Z,7.15
2018-12-24T00:06:04.150Z,7.05
2018-12-24T00:07:04.154Z,7.11
2018-12-24T00:08:04.128Z,7.00
2018-12-24T00:09:04.119Z,6.97
2018-12-24T00:10:04.112Z,6.90
2018-12-24T00:11:04.095Z,6.86
2018-12-24T00:12:07.179Z,6.87
2018-12-24T00:13:04.078Z,6.83
2018-12-24T00:14:04.087Z,6.75
2018-12-24T00:15:04.055Z,6.78
2018-12-24T00:16:04.043Z,6.73
2018-12-24T00:17:04.046Z,6.69
2018-12-24T00:18:04.021Z,6.71
2018-12-24T00:19:04.011Z,6.78
2018-12-24T00:20:04.003Z,6.64
2018-12-24T00:21:03.987Z,6.69
2018-12-24T00:22:03.988Z,6.64
2018-12-24T00:23:03.969Z,6.69
2018-12-24T00:24:03.959Z,6.78
2018-12-24T00:25:03.946Z,6.69
2018-12-24T00:26:03.937Z,6.65
2018-12-24T00:27:03.941Z,6.71
2018-12-24T00:28:03.913Z,6.63
2018-12-24T00:29:03.907Z,6.73
2018-12-24T00:30:03.893Z,6.68
2018-12-24T00:31:03.879Z,6.55
2018-12-24T00:32:03.882Z,6.51
2018-12-24T00:33:03.859Z,6.61
2018-12-24T00:34:03.846Z,6.58
2018-12-24T00:35:03.837Z,6.57
2018-12-24T00:36:03.833Z,6.50
2018-12-24T00:37:03.828Z,6.53
2018-12-24T00:38:03.802Z,6.63
2018-12-24T00:39:03.795Z,6.54
2018-12-24T00:40:03.786Z,6.53
2018-12-24T00:41:03.772Z,6.54
2018-12-24T00:42:03.780Z,6.51
2018-12-24T00:43:03.750Z,6.54
2018-12-24T00:44:03.739Z,6.57
2018-12-24T00:45:03.728Z,6.58
2018-12-24T00:46:03.715Z,6.55
2018-12-24T00:47:03.718Z,6.57
2018-12-24T00:48:03.700Z,6.61
2018-12-24T00:49:03.683Z,6.54
2018-12-24T00:50:03.672Z,6.40
2018-12-24T00:51:03.663Z,6.50
2018-12-24T00:52:03.666Z,6.45
2018-12-24T00:53:03.648Z,6.40
2018-12-24T00:54:03.629Z,6.45
2018-12-24T00:55:03.623Z,6.36
2018-12-24T00:56:03.609Z,6.30
2018-12-24T00:57:03.617Z,6.27
2018-12-24T00:58:03.589Z,6.17
2018-12-24T00:59:03.578Z,6.11
2018-12-24T01:00:03.565Z,6.14
2018-12-24T01:01:03.558Z,6.11
2018-12-24T01:02:03.553Z,6.13
2018-12-24T01:03:03.534Z,6.05
2018-12-24T01:04:03.523Z,6.03
2018-12-24T01:05:03.516Z,6.05
2018-12-24T01:06:03.503Z,6.03
2018-12-24T01:07:03.506Z,6.05
2018-12-24T01:08:03.483Z,5.98
2018-12-24T01:09:03.472Z,5.95
2018-12-24T01:10:03.460Z,5.93
2018-12-24T01:11:03.453Z,5.96
2018-12-24T01:12:03.448Z,5.87
2018-12-24T01:13:03.427Z,5.87
2018-12-24T01:14:03.420Z,5.88
2018-12-24T01:15:03.405Z,5.88
2018-12-24T01:16:03.399Z,5.90
2018-12-24T01:17:03.400Z,5.85
2018-12-24T01:18:03.373Z,5.81
2018-12-24T01:19:03.365Z,5.85
2018-12-24T01:20:03.355Z,5.77
2018-12-24T01:21:03.340Z,5.74
2018-12-24T01:22:03.362Z,5.73
2018-12-24T01:23:03.318Z,5.73
2018-12-24T01:24:03.308Z,5.73
2018-12-24T01:25:03.295Z,5.73
2018-12-24T01:26:03.284Z,5.69
2018-12-24T01:27:03.276Z,5.59
2018-12-24T01:28:03.279Z,5.70
2018-12-24T01:29:03.253Z,5.63
2018-12-24T01:30:03.243Z,5.63
2018-12-24T01:31:03.233Z,5.56
2018-12-24T01:32:03.222Z,5.56
2018-12-24T01:33:03.226Z,5.56
2018-12-24T01:34:03.200Z,5.55
2018-12-24T01:35:03.188Z,5.49
2018-12-24T01:36:03.181Z,5.51
2018-12-24T01:37:03.168Z,5.49
2018-12-24T01:38:03.169Z,5.52
2018-12-24T01:39:03.148Z,5.40
2018-12-24T01:40:03.134Z,5.41
2018-12-24T01:41:03.124Z,5.44
2018-12-24T01:42:03.113Z,5.44
2018-12-24T01:43:03.117Z,5.44
2018-12-24T01:44:03.097Z,5.42
2018-12-24T01:45:03.086Z,5.44
2018-12-24T01:46:03.070Z,5.42
2018-12-24T01:47:03.066Z,5.51
2018-12-24T01:48:03.062Z,5.40
2018-12-24T01:49:03.041Z,5.38
2018-12-24T01:50:03.031Z,5.45
2018-12-24T01:51:03.017Z,5.42
2018-12-24T01:52:03.010Z,5.42
2018-12-24T01:53:03.007Z,5.38
2018-12-24T01:54:02.991Z,5.42
2018-12-24T01:55:02.982Z,5.30
2018-12-24T01:56:02.997Z,5.41
2018-12-24T01:57:02.954Z,5.45
2018-12-24T01:58:02.958Z,5.29
2018-12-24T01:59:02.935Z,5.32
2018-12-24T02:00:02.922Z,5.19
2018-12-24T02:01:02.910Z,5.26
2018-12-24T02:02:02.906Z,5.26
2018-12-24T02:03:02.903Z,5.26
2018-12-24T02:04:02.880Z,5.27
2018-12-24T02:05:02.890Z,5.23
2018-12-24T02:06:02.860Z,5.22
2018-12-24T02:07:02.852Z,5.20
2018-12-24T02:08:02.855Z,5.20
2018-12-24T02:09:02.828Z,5.14
2018-12-24T02:10:02.816Z,5.12
2018-12-24T02:11:02.819Z,5.17
2018-12-24T02:12:02.795Z,5.12
2018-12-24T02:13:02.795Z,5.15
2018-12-24T02:14:02.776Z,5.12
2018-12-24T02:15:02.762Z,5.17
2018-12-24T02:16:02.764Z,5.17
2018-12-24T02:17:02.747Z,5.09
2018-12-24T02:18:02.747Z,4.96
2018-12-24T02:19:02.722Z,5.02
2018-12-24T02:20:02.711Z,4.99
2018-12-24T02:21:02.698Z,5.01
2018-12-24T02:22:02.692Z,4.86
2018-12-24T02:23:02.690Z,4.93
2018-12-24T02:24:02.665Z,4.93
2018-12-24T02:25:02.664Z,4.94
2018-12-24T02:26:02.646Z,4.93
2018-12-24T02:27:02.636Z,4.84
2018-12-24T02:28:02.634Z,4.90
2018-12-24T02:29:02.612Z,4.94
2018-12-24T02:30:02.609Z,4.90
2018-12-24T02:31:02.596Z,4.93
2018-12-24T02:32:02.580Z,4.87
2018-12-24T02:33:02.579Z,4.94
2018-12-24T02:34:02.578Z,4.93
2018-12-24T02:35:02.553Z,4.94
2018-12-24T02:36:02.540Z,4.86
2018-12-24T02:37:02.528Z,4.91
2018-12-24T02:38:02.526Z,4.88
2018-12-24T02:39:02.508Z,4.86
2018-12-24T02:40:02.496Z,4.91
2018-12-24T02:41:02.484Z,4.90
2018-12-24T02:42:02.472Z,4.94
2018-12-24T02:43:02.485Z,4.83
2018-12-24T02:44:02.451Z,4.75
2018-12-24T02:45:02.444Z,4.72
2018-12-24T02:46:02.445Z,4.79
2018-12-24T02:47:02.424Z,4.79
2018-12-24T02:48:02.422Z,4.68
2018-12-24T02:49:02.396Z,4.68
2018-12-24T02:50:02.390Z,4.68
2018-12-24T02:51:02.381Z,4.62
2018-12-24T02:52:02.487Z,4.64
2018-12-24T02:53:02.367Z,4.65
2018-12-24T02:54:02.347Z,4.61
2018-12-24T02:55:02.334Z,4.61
2018-12-24T02:56:02.332Z,4.71
2018-12-24T02:57:02.314Z,4.65
2018-12-24T02:58:02.331Z,4.72
2018-12-24T02:59:02.290Z,4.68
2018-12-24T03:00:02.280Z,4.67
2018-12-24T03:01:02.267Z,4.65
2018-12-24T03:02:02.260Z,4.61
2018-12-24T03:03:02.273Z,4.61
2018-12-24T03:04:02.252Z,4.53
2018-12-24T03:05:02.236Z,4.56
2018-12-24T03:06:02.215Z,4.50
2018-12-24T03:07:02.204Z,4.61
2018-12-24T03:08:02.196Z,4.51
2018-12-24T03:09:02.195Z,4.56
2018-12-24T03:10:02.176Z,4.43
2018-12-24T03:11:02.164Z,4.44
2018-12-24T03:12:02.151Z,4.47
2018-12-24T03:13:03.079Z,4.46
2018-12-24T03:14:02.144Z,4.53
2018-12-24T03:15:02.127Z,4.47
2018-12-24T03:16:02.109Z,4.44
2018-12-24T03:17:02.097Z,4.50
2018-12-24T03:18:02.102Z,4.50
2018-12-24T03:19:02.104Z,4.46
2018-12-24T03:20:02.069Z,4.44
2018-12-24T03:21:02.068Z,4.47
2018-12-24T03:22:02.074Z,4.47
2018-12-24T03:23:02.069Z,4.47
2018-12-24T03:24:02.076Z,4.54
2018-12-24T03:25:02.018Z,4.47
2018-12-24T03:26:02.003Z,4.47
2018-12-24T03:27:02.070Z,4.50
2018-12-24T03:28:01.979Z,4.44
2018-12-24T03:29:01.981Z,4.49
2018-12-24T03:30:01.960Z,4.46
2018-12-24T03:31:01.953Z,4.46
2018-12-24T03:32:01.938Z,4.46
2018-12-24T03:33:01.927Z,4.44
2018-12-24T03:34:01.935Z,4.46
2018-12-24T03:35:01.949Z,4.50
2018-12-24T03:36:01.896Z,4.46
2018-12-24T03:37:01.883Z,4.38
2018-12-24T03:38:01.874Z,4.50
2018-12-24T03:39:01.880Z,4.44
2018-12-24T03:40:01.852Z,4.43
2018-12-24T03:41:01.845Z,4.43
2018-12-24T03:42:01.834Z,4.35
2018-12-24T03:43:01.819Z,4.43
2018-12-24T03:44:01.819Z,4.44
2018-12-24T03:45:01.798Z,4.42
2018-12-24T03:46:01.788Z,4.34
2018-12-24T03:47:01.775Z,4.35
2018-12-24T03:48:01.770Z,4.35
2018-12-24T03:49:01.768Z,4.34
2018-12-24T03:50:01.746Z,4.44
2018-12-24T03:51:01.838Z,4.43
2018-12-24T03:52:01.721Z,4.39
2018-12-24T03:53:01.712Z,4.38
2018-12-24T03:54:01.714Z,4.28
2018-12-24T03:55:01.690Z,4.38
2018-12-24T03:56:01.682Z,4.43
2018-12-24T03:57:01.679Z,4.35
2018-12-24T03:58:01.661Z,4.43
2018-12-24T03:59:01.659Z,4.46
2018-12-24T04:00:01.649Z,4.49
2018-12-24T04:01:01.641Z,4.47
2018-12-24T04:02:01.623Z,4.54
2018-12-24T04:03:01.607Z,4.50
2018-12-24T04:04:01.622Z,4.47
2018-12-24T04:05:01.590Z,4.43
2018-12-24T04:06:01.576Z,4.39
2018-12-24T04:07:01.562Z,4.39
2018-12-24T04:08:01.555Z,4.47
2018-12-24T04:09:01.556Z,4.38
2018-12-24T04:10:01.531Z,4.43
2018-12-24T04:11:01.519Z,4.43
2018-12-24T04:12:01.509Z,4.47
2018-12-24T04:13:01.497Z,4.46
2018-12-24T04:14:01.498Z,4.44
2018-12-24T04:15:01.476Z,4.44
2018-12-24T04:16:01.466Z,4.47
2018-12-24T04:17:01.464Z,4.46
2018-12-24T04:18:01.444Z,4.39
2018-12-24T04:19:01.443Z,4.35
2018-12-24T04:20:01.427Z,4.42
2018-12-24T04:21:01.411Z,4.36
2018-12-24T04:22:01.402Z,4.46
2018-12-24T04:23:01.390Z,4.42
2018-12-24T04:24:01.393Z,4.36
2018-12-24T04:25:01.368Z,4.39
2018-12-24T04:26:01.359Z,4.32
2018-12-24T04:27:01.346Z,4.35
2018-12-24T04:28:01.338Z,4.34
2018-12-24T04:29:01.339Z,4.34
2018-12-24T04:30:01.518Z,4.29
2018-12-24T04:31:01.306Z,4.31
2018-12-24T04:32:01.295Z,4.29
2018-12-24T04:33:01.282Z,4.39
2018-12-24T04:34:01.274Z,4.42
2018-12-24T04:35:01.277Z,4.38
2018-12-24T04:36:01.259Z,4.31
2018-12-24T04:37:01.242Z,4.31
2018-12-24T04:38:01.230Z,4.29
2018-12-24T04:39:01.221Z,4.29
2018-12-24T04:40:01.218Z,4.25
2018-12-24T04:41:01.195Z,4.26
2018-12-24T04:42:01.187Z,4.11
2018-12-24T04:43:01.175Z,4.13
2018-12-24T04:44:01.169Z,4.02
2018-12-24T04:45:01.167Z,4.00
2018-12-24T04:46:01.143Z,4.00
2018-12-24T04:47:01.135Z,3.98
2018-12-24T04:48:01.123Z,3.96
2018-12-24T04:49:01.113Z,3.92
2018-12-24T04:50:01.120Z,3.96
2018-12-24T04:51:01.089Z,3.90
2018-12-24T04:52:01.080Z,3.88
2018-12-24T04:53:01.068Z,3.89
2018-12-24T04:54:01.060Z,3.95
2018-12-24T04:55:01.058Z,3.96
2018-12-24T04:56:01.037Z,3.86
2018-12-24T04:57:01.027Z,3.88
2018-12-24T04:58:01.015Z,3.89
2018-12-24T04:59:01.004Z,3.88
2018-12-24T05:00:01.008Z,3.84
2018-12-24T05:01:00.981Z,3.86
2018-12-24T05:02:00.975Z,3.80
2018-12-24T05:03:00.963Z,3.86
2018-12-24T05:04:00.952Z,3.81
2018-12-24T05:05:00.953Z,3.74
2018-12-24T05:06:00.930Z,3.81
2018-12-24T05:07:00.918Z,3.78
2018-12-24T05:08:00.908Z,3.72
2018-12-24T05:09:00.898Z,3.70
2018-12-24T05:10:00.899Z,3.71
2018-12-24T05:11:00.876Z,3.78
2018-12-24T05:12:00.866Z,3.81
2018-12-24T05:13:00.856Z,3.77
2018-12-24T05:14:00.847Z,3.84
2018-12-24T05:15:00.851Z,3.81
2018-12-24T05:16:00.824Z,3.78
2018-12-24T05:17:00.814Z,3.80
2018-12-24T05:18:00.804Z,3.82
2018-12-24T05:19:00.793Z,3.81
2018-12-24T05:20:00.797Z,3.64
2018-12-24T05:21:00.771Z,3.71
2018-12-24T05:22:00.762Z,3.63
2018-12-24T05:23:00.753Z,3.63
2018-12-24T05:24:00.739Z,3.60
2018-12-24T05:25:00.739Z,3.63
2018-12-24T05:26:00.718Z,3.67
2018-12-24T05:27:00.708Z,3.64
2018-12-24T05:28:00.696Z,3.68
2018-12-24T05:29:00.687Z,3.60
2018-12-24T05:30:00.696Z,3.60
2018-12-24T05:31:00.663Z,3.68
2018-12-24T05:32:00.653Z,3.74
2018-12-24T05:33:00.643Z,3.74
2018-12-24T05:34:00.644Z,3.74
2018-12-24T05:35:00.635Z,3.78
2018-12-24T05:36:00.610Z,3.77
2018-12-24T05:37:00.601Z,3.74
2018-12-24T05:38:00.589Z,3.75
2018-12-24T05:39:00.577Z,3.74
2018-12-24T05:40:00.581Z,3.74
2018-12-24T05:41:00.562Z,3.81
2018-12-24T05:42:00.547Z,3.80
2018-12-24T05:43:00.538Z,3.88
2018-12-24T05:44:00.527Z,3.82
2018-12-24T05:45:00.526Z,3.82
2018-12-24T05:46:00.508Z,3.86
2018-12-24T05:47:00.492Z,3.78
2018-12-24T05:48:00.489Z,3.81
2018-12-24T05:49:00.472Z,3.75
2018-12-24T05:50:00.472Z,3.68
2018-12-24T05:51:00.451Z,3.70
2018-12-24T05:52:00.448Z,3.72
2018-12-24T05:53:00.429Z,3.72
2018-12-24T05:54:00.421Z,3.63
2018-12-24T05:55:00.425Z,3.77
2018-12-24T05:56:00.398Z,3.71
2018-12-24T05:57:00.386Z,3.81
2018-12-24T05:58:00.377Z,3.77
2018-12-24T05:59:00.368Z,3.77
2018-12-24T06:00:00.368Z,3.72
2018-12-24T06:01:00.344Z,3.80
2018-12-24T06:02:00.334Z,3.74
2018-12-24T06:03:00.324Z,3.70
2018-12-24T06:04:00.316Z,3.72
2018-12-24T06:05:00.339Z,3.68
2018-12-24T06:06:00.294Z,3.70
2018-12-24T06:07:00.281Z,3.64
2018-12-24T06:08:00.272Z,3.72
2018-12-24T06:09:00.262Z,3.74
2018-12-24T06:10:00.299Z,3.75
2018-12-24T06:11:00.251Z,3.71
2018-12-24T06:12:00.226Z,3.84
2018-12-24T06:13:00.216Z,3.78
2018-12-24T06:14:00.207Z,3.74
2018-12-24T06:15:00.258Z,3.88
2018-12-24T06:16:00.198Z,3.90
2018-12-24T06:17:00.178Z,3.81
2018-12-24T06:18:00.180Z,3.84
2018-12-24T06:19:00.155Z,3.86
2018-12-24T06:20:00.257Z,3.84
2018-12-24T06:21:00.145Z,3.88
2018-12-24T06:22:00.138Z,3.89
2018-12-24T06:23:00.111Z,3.86
2018-12-24T06:24:00.099Z,3.84
2018-12-24T06:25:00.143Z,3.81
2018-12-24T06:26:00.099Z,3.84
2018-12-24T06:27:00.077Z,3.90
2018-12-24T06:28:00.059Z,3.82
2018-12-24T06:29:00.047Z,3.82
2018-12-24T06:30:00.036Z,3.89
2018-12-24T06:31:00.038Z,3.90
2018-12-24T06:32:00.013Z,3.88
2018-12-24T06:33:00.006Z,3.86
2018-12-24T06:34:00.000Z,3.80
2018-12-24T06:34:59.982Z,3.80
2018-12-24T06:35:59.983Z,3.84
2018-12-24T06:36:59.961Z,3.78
2018-12-24T06:37:59.952Z,3.78
2018-12-24T06:38:59.941Z,3.80
2018-12-24T06:39:59.931Z,3.80
2018-12-24T06:41:00.048Z,3.75
2018-12-24T06:41:59.907Z,3.80
2018-12-24T06:42:59.897Z,3.72
2018-12-24T06:44:06.747Z,3.74
2018-12-24T06:45:00.875Z,3.81
2018-12-24T06:45:59.882Z,3.75
2018-12-24T06:46:59.854Z,3.86
2018-12-24T06:47:59.844Z,3.77
2018-12-24T06:48:59.835Z,3.78
2018-12-24T06:49:59.822Z,3.75
2018-12-24T06:50:59.824Z,3.74
2018-12-24T06:51:59.801Z,3.74
2018-12-24T06:52:59.790Z,3.62
2018-12-24T06:53:59.781Z,3.67
2018-12-24T06:54:59.771Z,3.67
2018-12-24T06:55:59.778Z,3.59
2018-12-24T06:56:59.747Z,3.68
2018-12-24T06:57:59.738Z,3.68
2018-12-24T06:58:59.725Z,3.67
2018-12-24T06:59:59.715Z,3.70
2018-12-24T07:00:59.717Z,3.72
2018-12-24T07:01:59.696Z,3.71
2018-12-24T07:02:59.687Z,3.70
2018-12-24T07:03:59.672Z,3.67
2018-12-24T07:04:59.663Z,3.67
2018-12-24T07:05:59.666Z,3.63
2018-12-24T07:06:59.642Z,3.64
2018-12-24T07:07:59.634Z,3.60
2018-12-24T07:08:59.628Z,3.59
2018-12-24T07:09:59.608Z,3.60
2018-12-24T07:10:59.611Z,3.53
2018-12-24T07:11:59.590Z,3.44
2018-12-24T07:12:59.579Z,3.44
2018-12-24T07:13:59.568Z,3.44
2018-12-24T07:14:59.559Z,3.30
2018-12-24T07:15:59.557Z,3.26
2018-12-24T07:16:59.535Z,3.28
2018-12-24T07:17:59.523Z,3.28
2018-12-24T07:18:59.512Z,3.20
2018-12-24T07:19:59.502Z,3.19
2018-12-24T07:20:59.503Z,3.16
2018-12-24T07:21:59.484Z,3.01
2018-12-24T07:22:59.470Z,2.99
2018-12-24T07:23:59.460Z,2.95
2018-12-24T07:24:59.454Z,3.01
2018-12-24T07:25:59.452Z,2.87
2018-12-24T07:26:59.428Z,2.94
2018-12-24T07:27:59.417Z,2.89
2018-12-24T07:28:59.424Z,2.84
2018-12-24T07:29:59.397Z,2.98
2018-12-24T07:30:59.396Z,2.90
2018-12-24T07:31:59.376Z,2.94
2018-12-24T07:32:59.364Z,2.90
2018-12-24T07:33:59.354Z,2.95
2018-12-24T07:34:59.361Z,2.87
2018-12-24T07:35:59.378Z,2.89
2018-12-24T07:36:59.321Z,2.89
2018-12-24T07:37:59.310Z,2.97
2018-12-24T07:38:59.303Z,2.92
2018-12-24T07:39:59.289Z,2.92
2018-12-24T07:40:59.278Z,2.90
2018-12-24T07:41:59.279Z,2.95
2018-12-24T07:42:59.259Z,2.90
2018-12-24T07:43:59.246Z,2.94
2018-12-24T07:44:59.236Z,2.92
2018-12-24T07:45:59.226Z,2.97
2018-12-24T07:46:59.227Z,2.97
2018-12-24T07:47:59.204Z,2.90
2018-12-24T07:48:59.196Z,2.98
2018-12-24T07:49:59.182Z,2.95
2018-12-24T07:50:59.173Z,2.95
2018-12-24T07:51:59.173Z,2.87
2018-12-24T07:52:59.154Z,2.94
2018-12-24T07:53:59.143Z,2.95
2018-12-24T07:54:59.129Z,3.01
2018-12-24T07:55:59.121Z,2.98
2018-12-24T07:56:59.118Z,3.08
2018-12-24T07:57:59.099Z,3.02
2018-12-24T07:58:59.089Z,3.12
2018-12-24T07:59:59.075Z,3.15
2018-12-24T08:00:59.143Z,3.01
2018-12-24T08:01:59.069Z,2.99
2018-12-24T08:02:59.043Z,3.07
2018-12-24T08:03:59.034Z,2.95
2018-12-24T08:04:59.025Z,2.95
2018-12-24T08:05:59.011Z,2.92
2018-12-24T08:06:59.017Z,2.97
2018-12-24T08:07:58.990Z,2.94
2018-12-24T08:08:58.979Z,2.90
2018-12-24T08:09:58.968Z,2.89
2018-12-24T08:10:58.959Z,2.84
2018-12-24T08:11:58.963Z,2.84
2018-12-24T08:12:58.937Z,2.84
2018-12-24T08:13:58.926Z,2.80
2018-12-24T08:14:58.916Z,2.90
2018-12-24T08:15:58.907Z,2.97
2018-12-24T08:16:58.905Z,2.90
2018-12-24T08:17:58.883Z,2.87
2018-12-24T08:18:58.873Z,2.89
2018-12-24T08:19:58.864Z,2.87
2018-12-24T08:20:58.855Z,2.86
2018-12-24T08:21:58.882Z,2.81
2018-12-24T08:22:58.832Z,2.81
2018-12-24T08:23:58.822Z,2.76
2018-12-24T08:24:58.812Z,2.74
2018-12-24T08:25:58.803Z,2.76
2018-12-24T08:26:58.800Z,2.69
2018-12-24T08:27:58.789Z,2.65
2018-12-24T08:28:58.769Z,2.69
2018-12-24T08:29:58.756Z,2.68
2018-12-24T08:30:58.751Z,2.58
2018-12-24T08:31:58.734Z,2.58
2018-12-24T08:32:58.739Z,2.45
2018-12-24T08:33:58.714Z,2.56
2018-12-24T08:34:58.709Z,2.59
2018-12-24T08:35:58.693Z,2.48
2018-12-24T08:36:58.681Z,2.50
2018-12-24T08:37:58.683Z,2.56
2018-12-24T08:38:58.666Z,2.58
2018-12-24T08:39:58.655Z,2.56
2018-12-24T08:40:58.640Z,2.56
2018-12-24T08:41:58.637Z,2.53
2018-12-24T08:42:58.629Z,2.61
2018-12-24T08:43:58.612Z,2.71
2018-12-24T08:44:58.598Z,2.69
2018-12-24T08:45:58.587Z,2.61
2018-12-24T08:46:58.586Z,2.73
2018-12-24T08:47:58.577Z,2.65
2018-12-24T08:48:58.555Z,2.71
2018-12-24T08:49:58.543Z,2.71
2018-12-24T08:50:58.533Z,2.68
2018-12-24T08:51:58.528Z,2.73
2018-12-24T08:52:58.524Z,2.76
2018-12-24T08:53:58.503Z,2.79
2018-12-24T08:54:58.489Z,2.71
2018-12-24T08:55:58.479Z,2.71
2018-12-24T08:56:58.470Z,2.73
2018-12-24T08:57:58.470Z,2.65
2018-12-24T08:58:58.448Z,2.69
2018-12-24T08:59:58.439Z,2.77
2018-12-24T09:00:58.427Z,2.80
2018-12-24T09:01:58.425Z,2.77
2018-12-24T09:02:58.415Z,2.69
2018-12-24T09:03:58.399Z,2.80
2018-12-24T09:04:58.383Z,2.84
2018-12-24T09:05:58.373Z,2.83
2018-12-24T09:06:58.363Z,2.84
2018-12-24T09:07:58.363Z,2.83
2018-12-24T09:08:58.341Z,2.87
2018-12-24T09:09:58.331Z,2.74
2018-12-24T09:10:58.322Z,2.80
2018-12-24T09:11:58.310Z,2.83
2018-12-24T09:12:58.315Z,2.80
2018-12-24T09:13:58.289Z,2.86
2018-12-24T09:14:58.280Z,2.84
2018-12-24T09:15:58.268Z,2.86
2018-12-24T09:16:58.256Z,2.87
2018-12-24T09:17:58.257Z,2.76
2018-12-24T09:18:58.236Z,2.94
2018-12-24T09:19:58.226Z,2.87
2018-12-24T09:20:58.215Z,2.90
2018-12-24T09:21:58.208Z,2.80
2018-12-24T09:22:58.204Z,2.90
2018-12-24T09:23:58.183Z,2.92
2018-12-24T09:24:58.173Z,2.90
2018-12-24T09:25:58.164Z,2.92
2018-12-24T09:26:58.154Z,3.01
2018-12-24T09:27:58.150Z,2.99
2018-12-24T09:28:58.129Z,3.02
2018-12-24T09:29:58.121Z,3.02
2018-12-24T09:30:58.110Z,3.04
2018-12-24T09:31:58.097Z,2.99
2018-12-24T09:32:58.102Z,3.05
2018-12-24T09:33:58.079Z,2.94
2018-12-24T09:34:58.066Z,3.07
2018-12-24T09:35:58.054Z,3.07
2018-12-24T09:36:58.099Z,3.05
2018-12-24T09:37:58.046Z,3.08
2018-12-24T09:38:58.023Z,3.02
2018-12-24T09:39:58.015Z,3.01
2018-12-24T09:40:58.002Z,3.07
2018-12-24T09:41:57.991Z,3.07
2018-12-24T09:42:57.991Z,3.07
2018-12-24T09:43:57.975Z,3.15
2018-12-24T09:44:59.025Z,3.16
2018-12-24T09:45:57.948Z,3.12
2018-12-24T09:46:57.938Z,3.12
2018-12-24T09:47:57.944Z,3.13
2018-12-24T09:48:57.924Z,3.13
2018-12-24T09:49:57.909Z,3.12
2018-12-24T09:50:57.897Z,3.08
2018-12-24T09:51:57.886Z,3.10
2018-12-24T09:52:57.885Z,3.12
2018-12-24T09:53:57.865Z,3.12
2018-12-24T09:54:57.854Z,3.17
2018-12-24T09:55:57.843Z,3.13
2018-12-24T09:56:57.838Z,3.15
2018-12-24T09:57:57.831Z,3.20
2018-12-24T09:58:57.811Z,3.23
2018-12-24T09:59:57.801Z,3.17
2018-12-24T10:00:57.790Z,3.19
2018-12-24T10:01:57.779Z,3.15
2018-12-24T10:02:57.783Z,3.17
2018-12-24T10:04:02.852Z,3.12
2018-12-24T10:04:58.745Z,3.16
2018-12-24T10:05:57.780Z,3.20
2018-12-24T10:06:57.728Z,3.12
2018-12-24T10:07:57.730Z,3.22
2018-12-24T10:08:57.704Z,3.16
2018-12-24T10:09:57.697Z,3.16
2018-12-24T10:10:57.688Z,3.15
2018-12-24T10:11:57.673Z,3.33
2018-12-24T10:12:57.694Z,3.15
2018-12-24T10:13:57.653Z,3.20
2018-12-24T10:14:57.647Z,3.26
2018-12-24T10:15:57.635Z,3.20
2018-12-24T10:16:57.630Z,3.13
2018-12-24T10:17:57.608Z,3.15
2018-12-24T10:18:57.609Z,3.20
2018-12-24T10:19:57.591Z,3.22
2018-12-24T10:20:57.581Z,3.19
2018-12-24T10:21:57.565Z,3.22
2018-12-24T10:22:57.569Z,3.23
2018-12-24T10:23:57.558Z,3.23
2018-12-24T10:24:57.535Z,3.25
2018-12-24T10:25:57.524Z,3.28
2018-12-24T10:26:57.513Z,3.28
2018-12-24T10:27:57.513Z,3.34
2018-12-24T10:28:57.503Z,3.35
2018-12-24T10:29:57.480Z,3.31
2018-12-24T10:30:57.471Z,3.20
2018-12-24T10:31:57.458Z,3.37
2018-12-24T10:32:57.450Z,3.31
2018-12-24T10:33:57.456Z,3.31
2018-12-24T10:34:57.429Z,3.44
2018-12-24T10:35:57.416Z,3.35
2018-12-24T10:36:57.404Z,3.34
2018-12-24T10:37:57.394Z,3.34
2018-12-24T10:38:57.396Z,3.25
2018-12-24T10:39:57.374Z,3.33
2018-12-24T10:40:57.365Z,3.23
2018-12-24T10:41:57.352Z,3.30
2018-12-24T10:42:57.347Z,3.31
2018-12-24T10:43:57.342Z,3.26
2018-12-24T10:44:57.321Z,3.34
2018-12-24T10:45:57.313Z,3.42
2018-12-24T10:46:58.480Z,3.34
2018-12-24T10:47:57.288Z,3.33
2018-12-24T10:48:57.288Z,3.20
2018-12-24T10:49:57.364Z,3.28
2018-12-24T10:50:57.260Z,3.33
2018-12-24T10:51:57.250Z,3.25
2018-12-24T10:52:57.298Z,3.31
2018-12-24T10:53:57.236Z,3.34
2018-12-24T10:54:57.218Z,3.31
2018-12-24T10:55:57.206Z,3.37
2018-12-24T10:56:57.194Z,3.37
2018-12-24T10:57:57.182Z,3.37
2018-12-24T10:58:57.184Z,3.42
2018-12-24T10:59:57.163Z,3.37
2018-12-24T11:00:57.159Z,3.20
2018-12-24T11:01:57.141Z,3.28
2018-12-24T11:02:57.128Z,3.30
2018-12-24T11:03:57.132Z,3.19
2018-12-24T11:04:57.108Z,3.31
2018-12-24T11:05:57.103Z,3.31
2018-12-24T11:06:57.094Z,3.30
2018-12-24T11:07:57.075Z,3.34
2018-12-24T11:08:57.081Z,3.23
2018-12-24T11:09:57.056Z,3.20
2018-12-24T11:10:57.044Z,3.16
2018-12-24T11:11:57.038Z,2.99
2018-12-24T11:12:57.023Z,2.98
2018-12-24T11:13:57.027Z,2.92
2018-12-24T11:14:57.002Z,2.90
2018-12-24T11:15:56.991Z,2.83
2018-12-24T11:16:56.981Z,2.81
2018-12-24T11:17:56.969Z,2.79
2018-12-24T11:18:56.970Z,2.86
2018-12-24T11:19:56.948Z,2.84
2018-12-24T11:20:56.937Z,2.97
2018-12-24T11:21:56.928Z,2.87
2018-12-24T11:22:56.950Z,2.92
2018-12-24T11:23:56.927Z,2.90
2018-12-24T11:24:56.897Z,2.90
2018-12-24T11:25:56.886Z,2.94
2018-12-24T11:26:56.891Z,2.89
2018-12-24T11:27:56.864Z,2.95
2018-12-24T11:28:56.867Z,2.95
2018-12-24T11:29:56.842Z,2.89
2018-12-24T11:30:56.843Z,2.87
2018-12-24T11:31:56.821Z,3.02
2018-12-24T11:32:56.811Z,2.86
2018-12-24T11:33:57.687Z,3.01
2018-12-24T11:34:56.790Z,2.97
2018-12-24T11:35:56.778Z,2.90
2018-12-24T11:36:56.767Z,2.98
2018-12-24T11:37:56.756Z,2.95
2018-12-24T11:38:56.801Z,2.90
2018-12-24T11:39:56.735Z,3.02
2018-12-24T11:40:56.725Z,2.89
2018-12-24T11:41:56.716Z,2.87
2018-12-24T11:42:56.744Z,2.89
2018-12-24T11:43:56.698Z,2.95
2018-12-24T11:44:56.695Z,2.90
2018-12-24T11:45:56.671Z,2.94
2018-12-24T11:46:56.661Z,2.92
2018-12-24T11:47:56.651Z,2.90
2018-12-24T11:48:56.640Z,2.95
2018-12-24T11:49:56.644Z,2.90
2018-12-24T11:50:56.618Z,2.92
2018-12-24T11:51:56.608Z,2.92
2018-12-24T11:52:56.599Z,2.94
2018-12-24T11:53:56.587Z,2.92
2018-12-24T11:54:56.586Z,2.94
2018-12-24T11:55:56.574Z,2.95
2018-12-24T11:56:56.555Z,2.95
2018-12-24T11:57:56.547Z,2.97
2018-12-24T11:58:56.534Z,2.95
2018-12-24T11:59:56.536Z,2.98
2018-12-24T12:00:56.623Z,3.02
2018-12-24T12:01:56.501Z,3.04
2018-12-24T12:02:56.492Z,3.01
2018-12-24T12:03:56.480Z,2.98
2018-12-24T12:04:56.483Z,2.98
2018-12-24T12:05:57.169Z,3.02
2018-12-24T12:06:56.562Z,2.99
2018-12-24T12:07:56.439Z,3.13
2018-12-24T12:08:56.429Z,3.12
2018-12-24T12:09:56.426Z,3.04
2018-12-24T12:10:56.414Z,3.15
2018-12-24T12:11:56.394Z,3.17
2018-12-24T12:12:56.384Z,3.15
2018-12-24T12:13:56.374Z,3.13
2018-12-24T12:14:56.378Z,3.16
2018-12-24T12:15:56.357Z,3.12
2018-12-24T12:16:56.390Z,3.12
2018-12-24T12:17:56.331Z,3.16
2018-12-24T12:18:56.320Z,3.15
2018-12-24T12:19:56.323Z,3.17
2018-12-24T12:20:56.300Z,3.20
2018-12-24T12:21:56.289Z,3.17
2018-12-24T12:22:56.279Z,3.15
2018-12-24T12:23:56.268Z,3.12
2018-12-24T12:24:56.321Z,3.15
2018-12-24T12:25:56.246Z,3.17
2018-12-24T12:26:56.235Z,3.17
2018-12-24T12:27:56.225Z,3.16
2018-12-24T12:28:56.215Z,3.22
2018-12-24T12:29:56.219Z,3.30
2018-12-24T12:30:56.193Z,3.30
2018-12-24T12:31:56.182Z,3.20
2018-12-24T12:32:56.173Z,3.23
2018-12-24T12:33:56.166Z,3.22
2018-12-24T12:34:56.162Z,3.22
2018-12-24T12:35:56.150Z,3.19
2018-12-24T12:36:56.135Z,3.22
2018-12-24T12:37:56.119Z,3.20
2018-12-24T12:38:56.109Z,3.26
2018-12-24T12:39:56.111Z,3.34
2018-12-24T12:40:56.090Z,3.22
2018-12-24T12:41:56.080Z,3.25
2018-12-24T12:42:56.065Z,3.22
2018-12-24T12:43:56.054Z,3.33
2018-12-24T12:44:56.055Z,3.28
2018-12-24T12:45:56.033Z,3.30
2018-12-24T12:46:56.025Z,3.31
2018-12-24T12:47:57.498Z,3.31
2018-12-24T12:48:56.004Z,3.23
2018-12-24T12:49:56.004Z,3.23
2018-12-24T12:50:55.982Z,3.25
2018-12-24T12:51:55.972Z,3.23
2018-12-24T12:52:55.958Z,3.25
2018-12-24T12:53:55.948Z,3.25
2018-12-24T12:54:55.951Z,3.28
2018-12-24T12:55:55.927Z,3.26
2018-12-24T12:56:55.918Z,3.23
2018-12-24T12:57:55.907Z,3.25
2018-12-24T12:58:55.896Z,3.23
2018-12-24T12:59:55.894Z,3.25
2018-12-24T13:00:55.874Z,3.25
2018-12-24T13:01:55.864Z,3.23
2018-12-24T13:02:55.852Z,3.30
2018-12-24T13:03:55.854Z,3.30
2018-12-24T13:04:55.846Z,3.34
2018-12-24T13:05:55.820Z,3.28
2018-12-24T13:06:55.809Z,3.25
2018-12-24T13:07:55.800Z,3.30
2018-12-24T13:08:55.791Z,3.23
2018-12-24T13:09:55.787Z,3.28
2018-12-24T13:10:55.768Z,3.28
2018-12-24T13:11:55.756Z,3.31
2018-12-24T13:12:55.748Z,3.28
2018-12-24T13:13:55.736Z,3.25
2018-12-24T13:14:55.738Z,3.28
2018-12-24T13:15:59.516Z,3.30
2018-12-24T13:16:55.705Z,3.25
2018-12-24T13:17:55.697Z,3.33